sensor_id;sensor_type;location;lat;lon;timestamp;P1;durP1;ratioP1;P2;durP2;ratioP2
74291;SDS011;62687;55.738;37.516;2023-07-13T00:02:12;3.45;;;1.70;;
74291;SDS011;62687;55.738;37.516;2023-07-13T00:04:57;4.78;;;2.03;;
74291;SDS011;62687;55.738;37.516;2023-07-13T00:07:41;4.07;;;1.58;;
74291;SDS011;62687;55.738;37.516;2023-07-13T00:10:25;2.58;;;1.52;;
74291;SDS011;62687;55.738;37.516;2023-07-13T00:15:55;4.00;;;1.65;;
74291;SDS011;62687;55.738;37.516;2023-07-13T00:21:23;2.78;;;1.40;;
74291;SDS011;62687;55.738;37.516;2023-07-13T00:24:08;2.83;;;1.90;;
74291;SDS011;62687;55.738;37.516;2023-07-13T00:26:56;4.22;;;1.33;;
74291;SDS011;62687;55.738;37.516;2023-07-13T00:29:40;3.42;;;1.63;;
74291;SDS011;62687;55.738;37.516;2023-07-13T00:32:24;4.57;;;1.40;;
74291;SDS011;62687;55.738;37.516;2023-07-13T00:35:12;5.07;;;1.52;;
74291;SDS011;62687;55.738;37.516;2023-07-13T00:37:57;1.92;;;0.93;;
74291;SDS011;62687;55.738;37.516;2023-07-13T00:40:41;4.35;;;1.80;;
74291;SDS011;62687;55.738;37.516;2023-07-13T00:43:26;5.07;;;1.88;;
74291;SDS011;62687;55.738;37.516;2023-07-13T00:46:14;5.10;;;1.73;;
74291;SDS011;62687;55.738;37.516;2023-07-13T00:49:01;5.45;;;1.90;;
74291;SDS011;62687;55.738;37.516;2023-07-13T00:54:30;3.53;;;2.08;;
74291;SDS011;62687;55.738;37.516;2023-07-13T00:57:16;4.13;;;1.50;;
74291;SDS011;62687;55.738;37.516;2023-07-13T01:00:03;4.03;;;1.70;;
74291;SDS011;62687;55.738;37.516;2023-07-13T01:02:50;6.35;;;3.10;;
74291;SDS011;62687;55.738;37.516;2023-07-13T01:05:34;6.18;;;2.00;;
74291;SDS011;62687;55.738;37.516;2023-07-13T01:08:20;2.35;;;1.38;;
74291;SDS011;62687;55.738;37.516;2023-07-13T01:13:48;4.20;;;1.75;;
74291;SDS011;62687;55.738;37.516;2023-07-13T01:16:33;4.75;;;1.70;;
74291;SDS011;62687;55.738;37.516;2023-07-13T01:19:35;2.95;;;1.63;;
74291;SDS011;62687;55.738;37.516;2023-07-13T01:22:19;3.75;;;1.45;;
74291;SDS011;62687;55.738;37.516;2023-07-13T01:25:08;2.55;;;1.35;;
74291;SDS011;62687;55.738;37.516;2023-07-13T01:27:52;3.50;;;1.65;;
74291;SDS011;62687;55.738;37.516;2023-07-13T01:30:37;5.43;;;2.00;;
74291;SDS011;62687;55.738;37.516;2023-07-13T01:33:24;3.05;;;2.10;;
74291;SDS011;62687;55.738;37.516;2023-07-13T01:36:09;3.85;;;2.05;;
74291;SDS011;62687;55.738;37.516;2023-07-13T01:38:54;4.18;;;2.35;;
74291;SDS011;62687;55.738;37.516;2023-07-13T01:41:38;3.70;;;1.90;;
74291;SDS011;62687;55.738;37.516;2023-07-13T01:44:22;2.70;;;2.03;;
74291;SDS011;62687;55.738;37.516;2023-07-13T01:47:06;3.13;;;2.08;;
74291;SDS011;62687;55.738;37.516;2023-07-13T01:49:51;5.15;;;1.70;;
74291;SDS011;62687;55.738;37.516;2023-07-13T01:52:35;3.75;;;1.60;;
74291;SDS011;62687;55.738;37.516;2023-07-13T01:55:20;5.15;;;2.03;;
74291;SDS011;62687;55.738;37.516;2023-07-13T02:00:49;3.10;;;1.80;;
74291;SDS011;62687;55.738;37.516;2023-07-13T02:03:33;3.90;;;1.65;;
74291;SDS011;62687;55.738;37.516;2023-07-13T02:06:17;6.80;;;2.00;;
74291;SDS011;62687;55.738;37.516;2023-07-13T02:09:01;6.68;;;2.10;;
74291;SDS011;62687;55.738;37.516;2023-07-13T02:11:45;3.95;;;1.63;;
74291;SDS011;62687;55.738;37.516;2023-07-13T02:14:29;6.85;;;2.30;;
74291;SDS011;62687;55.738;37.516;2023-07-13T02:17:13;4.80;;;1.98;;
74291;SDS011;62687;55.738;37.516;2023-07-13T02:19:57;3.10;;;1.70;;
74291;SDS011;62687;55.738;37.516;2023-07-13T02:22:41;3.03;;;1.88;;
74291;SDS011;62687;55.738;37.516;2023-07-13T02:25:25;3.90;;;1.63;;
74291;SDS011;62687;55.738;37.516;2023-07-13T02:28:10;4.07;;;1.67;;
74291;SDS011;62687;55.738;37.516;2023-07-13T02:30:54;3.22;;;1.88;;
74291;SDS011;62687;55.738;37.516;2023-07-13T02:33:38;4.20;;;1.65;;
74291;SDS011;62687;55.738;37.516;2023-07-13T02:36:22;4.82;;;1.80;;
74291;SDS011;62687;55.738;37.516;2023-07-13T02:39:06;5.82;;;2.22;;
74291;SDS011;62687;55.738;37.516;2023-07-13T02:41:50;5.25;;;2.40;;
74291;SDS011;62687;55.738;37.516;2023-07-13T02:44:34;5.15;;;1.70;;
74291;SDS011;62687;55.738;37.516;2023-07-13T02:47:18;2.55;;;1.65;;
74291;SDS011;62687;55.738;37.516;2023-07-13T02:50:02;5.00;;;1.98;;
74291;SDS011;62687;55.738;37.516;2023-07-13T02:52:46;6.38;;;2.10;;
74291;SDS011;62687;55.738;37.516;2023-07-13T02:55:30;5.57;;;2.10;;
74291;SDS011;62687;55.738;37.516;2023-07-13T02:58:14;4.88;;;2.08;;
74291;SDS011;62687;55.738;37.516;2023-07-13T03:01:05;8.52;;;2.22;;
74291;SDS011;62687;55.738;37.516;2023-07-13T03:03:49;3.80;;;2.20;;
74291;SDS011;62687;55.738;37.516;2023-07-13T03:06:34;7.10;;;2.10;;
74291;SDS011;62687;55.738;37.516;2023-07-13T03:09:18;3.17;;;2.15;;
74291;SDS011;62687;55.738;37.516;2023-07-13T03:12:02;5.53;;;2.20;;
74291;SDS011;62687;55.738;37.516;2023-07-13T03:14:46;6.45;;;2.00;;
74291;SDS011;62687;55.738;37.516;2023-07-13T03:17:29;3.35;;;2.13;;
74291;SDS011;62687;55.738;37.516;2023-07-13T03:20:14;5.22;;;2.17;;
74291;SDS011;62687;55.738;37.516;2023-07-13T03:22:58;3.17;;;1.67;;
74291;SDS011;62687;55.738;37.516;2023-07-13T03:25:42;3.13;;;1.90;;
74291;SDS011;62687;55.738;37.516;2023-07-13T03:28:25;2.75;;;1.25;;
74291;SDS011;62687;55.738;37.516;2023-07-13T03:31:12;3.75;;;1.60;;
74291;SDS011;62687;55.738;37.516;2023-07-13T03:33:57;4.05;;;1.92;;
74291;SDS011;62687;55.738;37.516;2023-07-13T03:36:41;4.10;;;2.00;;
74291;SDS011;62687;55.738;37.516;2023-07-13T03:39:25;5.30;;;1.98;;
74291;SDS011;62687;55.738;37.516;2023-07-13T03:42:10;3.40;;;2.00;;
74291;SDS011;62687;55.738;37.516;2023-07-13T03:44:54;4.10;;;1.65;;
74291;SDS011;62687;55.738;37.516;2023-07-13T03:47:38;4.93;;;1.70;;
74291;SDS011;62687;55.738;37.516;2023-07-13T03:50:22;4.80;;;2.22;;
74291;SDS011;62687;55.738;37.516;2023-07-13T03:53:06;7.72;;;2.20;;
74291;SDS011;62687;55.738;37.516;2023-07-13T03:55:50;5.28;;;2.08;;
74291;SDS011;62687;55.738;37.516;2023-07-13T03:58:35;5.70;;;1.88;;
74291;SDS011;62687;55.738;37.516;2023-07-13T04:01:21;4.32;;;2.13;;
74291;SDS011;62687;55.738;37.516;2023-07-13T04:04:04;6.68;;;1.80;;
74291;SDS011;62687;55.738;37.516;2023-07-13T04:06:48;4.60;;;1.85;;
74291;SDS011;62687;55.738;37.516;2023-07-13T04:09:32;3.83;;;1.95;;
74291;SDS011;62687;55.738;37.516;2023-07-13T04:12:16;4.10;;;1.63;;
74291;SDS011;62687;55.738;37.516;2023-07-13T04:15:00;4.90;;;1.95;;
74291;SDS011;62687;55.738;37.516;2023-07-13T04:17:45;4.97;;;1.88;;
74291;SDS011;62687;55.738;37.516;2023-07-13T04:20:29;4.70;;;2.10;;
74291;SDS011;62687;55.738;37.516;2023-07-13T04:23:14;6.75;;;1.88;;
74291;SDS011;62687;55.738;37.516;2023-07-13T04:25:59;3.75;;;1.85;;
74291;SDS011;62687;55.738;37.516;2023-07-13T04:31:29;6.82;;;2.63;;
74291;SDS011;62687;55.738;37.516;2023-07-13T04:34:14;3.92;;;1.85;;
74291;SDS011;62687;55.738;37.516;2023-07-13T04:36:58;3.17;;;1.88;;
74291;SDS011;62687;55.738;37.516;2023-07-13T04:39:42;3.15;;;1.77;;
74291;SDS011;62687;55.738;37.516;2023-07-13T04:45:13;4.57;;;1.77;;
74291;SDS011;62687;55.738;37.516;2023-07-13T04:47:57;6.95;;;1.90;;
74291;SDS011;62687;55.738;37.516;2023-07-13T04:50:41;9.55;;;2.13;;
74291;SDS011;62687;55.738;37.516;2023-07-13T04:53:28;6.28;;;2.05;;
74291;SDS011;62687;55.738;37.516;2023-07-13T04:56:12;6.10;;;2.40;;
74291;SDS011;62687;55.738;37.516;2023-07-13T04:58:56;3.35;;;1.75;;
74291;SDS011;62687;55.738;37.516;2023-07-13T05:01:42;4.70;;;1.70;;
74291;SDS011;62687;55.738;37.516;2023-07-13T05:04:26;4.82;;;1.50;;
74291;SDS011;62687;55.738;37.516;2023-07-13T05:07:10;3.55;;;1.67;;
74291;SDS011;62687;55.738;37.516;2023-07-13T05:09:54;3.97;;;2.03;;
74291;SDS011;62687;55.738;37.516;2023-07-13T05:12:38;2.72;;;1.50;;
74291;SDS011;62687;55.738;37.516;2023-07-13T05:15:24;3.58;;;1.80;;
74291;SDS011;62687;55.738;37.516;2023-07-13T05:18:09;4.47;;;1.80;;
74291;SDS011;62687;55.738;37.516;2023-07-13T05:20:57;6.25;;;2.17;;
74291;SDS011;62687;55.738;37.516;2023-07-13T05:23:41;3.33;;;1.67;;
74291;SDS011;62687;55.738;37.516;2023-07-13T05:26:28;6.57;;;2.15;;
74291;SDS011;62687;55.738;37.516;2023-07-13T05:29:12;9.15;;;2.40;;
74291;SDS011;62687;55.738;37.516;2023-07-13T05:31:56;11.02;;;2.22;;
74291;SDS011;62687;55.738;37.516;2023-07-13T05:34:40;7.00;;;2.08;;
74291;SDS011;62687;55.738;37.516;2023-07-13T05:37:24;6.65;;;2.30;;
74291;SDS011;62687;55.738;37.516;2023-07-13T05:40:08;6.97;;;2.15;;
74291;SDS011;62687;55.738;37.516;2023-07-13T05:42:52;7.47;;;1.90;;
74291;SDS011;62687;55.738;37.516;2023-07-13T05:45:36;4.50;;;1.65;;
74291;SDS011;62687;55.738;37.516;2023-07-13T05:48:20;10.30;;;2.60;;
74291;SDS011;62687;55.738;37.516;2023-07-13T05:51:04;5.10;;;1.65;;
74291;SDS011;62687;55.738;37.516;2023-07-13T05:53:48;6.38;;;2.10;;
74291;SDS011;62687;55.738;37.516;2023-07-13T05:56:32;9.40;;;1.98;;
74291;SDS011;62687;55.738;37.516;2023-07-13T05:59:17;9.00;;;2.63;;
74291;SDS011;62687;55.738;37.516;2023-07-13T06:04:45;6.45;;;2.30;;
74291;SDS011;62687;55.738;37.516;2023-07-13T06:07:29;3.58;;;1.70;;
74291;SDS011;62687;55.738;37.516;2023-07-13T06:12:58;3.58;;;1.80;;
74291;SDS011;62687;55.738;37.516;2023-07-13T06:15:42;11.63;;;2.28;;
74291;SDS011;62687;55.738;37.516;2023-07-13T06:18:25;10.32;;;1.98;;
74291;SDS011;62687;55.738;37.516;2023-07-13T06:21:11;3.00;;;1.17;;
74291;SDS011;62687;55.738;37.516;2023-07-13T06:23:55;7.28;;;1.80;;
74291;SDS011;62687;55.738;37.516;2023-07-13T06:26:39;6.25;;;1.80;;
74291;SDS011;62687;55.738;37.516;2023-07-13T06:29:23;6.30;;;1.83;;
74291;SDS011;62687;55.738;37.516;2023-07-13T06:32:07;6.00;;;1.48;;
74291;SDS011;62687;55.738;37.516;2023-07-13T06:34:51;3.53;;;1.73;;
74291;SDS011;62687;55.738;37.516;2023-07-13T06:37:35;3.53;;;1.35;;
74291;SDS011;62687;55.738;37.516;2023-07-13T06:40:19;4.53;;;1.92;;
74291;SDS011;62687;55.738;37.516;2023-07-13T06:43:03;5.35;;;1.65;;
74291;SDS011;62687;55.738;37.516;2023-07-13T06:45:48;9.27;;;2.00;;
74291;SDS011;62687;55.738;37.516;2023-07-13T06:48:33;4.82;;;1.65;;
74291;SDS011;62687;55.738;37.516;2023-07-13T06:51:17;3.67;;;1.80;;
74291;SDS011;62687;55.738;37.516;2023-07-13T06:54:01;13.10;;;2.80;;
74291;SDS011;62687;55.738;37.516;2023-07-13T06:56:45;5.57;;;2.65;;
74291;SDS011;62687;55.738;37.516;2023-07-13T06:59:29;3.33;;;2.03;;
74291;SDS011;62687;55.738;37.516;2023-07-13T07:02:13;12.75;;;2.38;;
74291;SDS011;62687;55.738;37.516;2023-07-13T07:04:57;6.45;;;2.60;;
74291;SDS011;62687;55.738;37.516;2023-07-13T07:07:41;7.93;;;2.72;;
74291;SDS011;62687;55.738;37.516;2023-07-13T07:10:25;7.68;;;2.00;;
74291;SDS011;62687;55.738;37.516;2023-07-13T07:13:09;10.43;;;3.03;;
74291;SDS011;62687;55.738;37.516;2023-07-13T07:15:53;3.08;;;1.50;;
74291;SDS011;62687;55.738;37.516;2023-07-13T07:18:37;8.15;;;1.80;;
74291;SDS011;62687;55.738;37.516;2023-07-13T07:21:21;5.78;;;1.70;;
74291;SDS011;62687;55.738;37.516;2023-07-13T07:24:06;4.95;;;2.13;;
74291;SDS011;62687;55.738;37.516;2023-07-13T07:26:51;7.70;;;1.95;;
74291;SDS011;62687;55.738;37.516;2023-07-13T07:29:35;5.38;;;2.08;;
74291;SDS011;62687;55.738;37.516;2023-07-13T07:32:19;4.78;;;1.80;;
74291;SDS011;62687;55.738;37.516;2023-07-13T07:35:04;3.78;;;1.98;;
74291;SDS011;62687;55.738;37.516;2023-07-13T07:37:48;6.97;;;1.58;;
74291;SDS011;62687;55.738;37.516;2023-07-13T07:40:32;5.53;;;1.80;;
74291;SDS011;62687;55.738;37.516;2023-07-13T07:43:19;11.15;;;3.10;;
74291;SDS011;62687;55.738;37.516;2023-07-13T07:46:03;3.05;;;1.30;;
74291;SDS011;62687;55.738;37.516;2023-07-13T07:48:47;5.15;;;1.60;;
74291;SDS011;62687;55.738;37.516;2023-07-13T07:51:31;10.65;;;2.25;;
74291;SDS011;62687;55.738;37.516;2023-07-13T07:54:15;4.35;;;2.00;;
74291;SDS011;62687;55.738;37.516;2023-07-13T07:57:00;11.85;;;2.35;;
74291;SDS011;62687;55.738;37.516;2023-07-13T07:59:43;10.77;;;2.60;;
74291;SDS011;62687;55.738;37.516;2023-07-13T08:02:27;7.38;;;3.38;;
74291;SDS011;62687;55.738;37.516;2023-07-13T08:05:11;18.10;;;7.90;;
74291;SDS011;62687;55.738;37.516;2023-07-13T08:07:56;24.58;;;8.25;;
74291;SDS011;62687;55.738;37.516;2023-07-13T08:10:39;14.98;;;5.78;;
74291;SDS011;62687;55.738;37.516;2023-07-13T08:13:23;22.35;;;8.25;;
74291;SDS011;62687;55.738;37.516;2023-07-13T08:16:07;20.33;;;9.02;;
74291;SDS011;62687;55.738;37.516;2023-07-13T08:18:51;18.55;;;8.88;;
74291;SDS011;62687;55.738;37.516;2023-07-13T08:21:36;10.88;;;5.85;;
74291;SDS011;62687;55.738;37.516;2023-07-13T08:24:22;14.77;;;8.13;;
74291;SDS011;62687;55.738;37.516;2023-07-13T08:27:06;12.02;;;5.38;;
74291;SDS011;62687;55.738;37.516;2023-07-13T08:29:50;13.32;;;5.45;;
74291;SDS011;62687;55.738;37.516;2023-07-13T08:32:34;9.30;;;3.92;;
74291;SDS011;62687;55.738;37.516;2023-07-13T08:35:18;13.38;;;5.13;;
74291;SDS011;62687;55.738;37.516;2023-07-13T08:38:02;9.93;;;3.67;;
74291;SDS011;62687;55.738;37.516;2023-07-13T08:40:53;6.25;;;2.80;;
74291;SDS011;62687;55.738;37.516;2023-07-13T08:43:38;3.97;;;2.00;;
74291;SDS011;62687;55.738;37.516;2023-07-13T08:46:24;7.90;;;2.25;;
74291;SDS011;62687;55.738;37.516;2023-07-13T08:49:16;3.70;;;2.00;;
74291;SDS011;62687;55.738;37.516;2023-07-13T08:52:03;4.43;;;1.67;;
74291;SDS011;62687;55.738;37.516;2023-07-13T08:54:49;4.00;;;1.88;;
74291;SDS011;62687;55.738;37.516;2023-07-13T08:57:34;7.78;;;1.77;;
74291;SDS011;62687;55.738;37.516;2023-07-13T09:03:04;5.03;;;2.10;;
74291;SDS011;62687;55.738;37.516;2023-07-13T09:05:51;5.85;;;2.10;;
74291;SDS011;62687;55.738;37.516;2023-07-13T09:08:44;14.90;;;3.80;;
74291;SDS011;62687;55.738;37.516;2023-07-13T09:17:15;8.82;;;2.78;;
74291;SDS011;62687;55.738;37.516;2023-07-13T09:22:57;7.78;;;2.40;;
74291;SDS011;62687;55.738;37.516;2023-07-13T09:25:43;5.55;;;2.58;;
74291;SDS011;62687;55.738;37.516;2023-07-13T09:28:29;4.68;;;2.60;;
74291;SDS011;62687;55.738;37.516;2023-07-13T09:31:24;10.40;;;2.40;;
74291;SDS011;62687;55.738;37.516;2023-07-13T09:34:10;4.60;;;2.35;;
74291;SDS011;62687;55.738;37.516;2023-07-13T09:36:54;9.75;;;2.67;;
74291;SDS011;62687;55.738;37.516;2023-07-13T09:39:39;7.95;;;2.67;;
74291;SDS011;62687;55.738;37.516;2023-07-13T09:42:25;4.95;;;2.67;;
74291;SDS011;62687;55.738;37.516;2023-07-13T09:45:09;9.82;;;2.83;;
74291;SDS011;62687;55.738;37.516;2023-07-13T09:47:58;6.70;;;2.10;;
74291;SDS011;62687;55.738;37.516;2023-07-13T09:50:42;4.53;;;2.50;;
74291;SDS011;62687;55.738;37.516;2023-07-13T09:53:27;6.25;;;2.55;;
74291;SDS011;62687;55.738;37.516;2023-07-13T09:56:21;8.50;;;3.05;;
74291;SDS011;62687;55.738;37.516;2023-07-13T09:59:17;11.35;;;3.40;;
74291;SDS011;62687;55.738;37.516;2023-07-13T10:02:01;7.32;;;3.00;;
74291;SDS011;62687;55.738;37.516;2023-07-13T10:04:46;7.72;;;3.00;;
74291;SDS011;62687;55.738;37.516;2023-07-13T10:07:31;7.72;;;3.28;;
74291;SDS011;62687;55.738;37.516;2023-07-13T10:12:59;7.72;;;2.65;;
74291;SDS011;62687;55.738;37.516;2023-07-13T10:15:43;10.52;;;3.05;;
74291;SDS011;62687;55.738;37.516;2023-07-13T10:18:27;7.30;;;3.08;;
74291;SDS011;62687;55.738;37.516;2023-07-13T10:21:13;5.40;;;2.35;;
74291;SDS011;62687;55.738;37.516;2023-07-13T10:24:05;5.05;;;2.38;;
74291;SDS011;62687;55.738;37.516;2023-07-13T10:27:05;5.13;;;2.25;;
74291;SDS011;62687;55.738;37.516;2023-07-13T10:32:37;10.27;;;3.10;;
74291;SDS011;62687;55.738;37.516;2023-07-13T10:35:21;2.90;;;1.55;;
74291;SDS011;62687;55.738;37.516;2023-07-13T10:38:13;5.72;;;2.80;;
74291;SDS011;62687;55.738;37.516;2023-07-13T10:41:09;4.70;;;1.95;;
74291;SDS011;62687;55.738;37.516;2023-07-13T10:43:54;4.07;;;2.08;;
74291;SDS011;62687;55.738;37.516;2023-07-13T10:46:38;5.57;;;2.53;;
74291;SDS011;62687;55.738;37.516;2023-07-13T10:49:23;3.72;;;2.40;;
74291;SDS011;62687;55.738;37.516;2023-07-13T10:52:35;4.00;;;2.00;;
74291;SDS011;62687;55.738;37.516;2023-07-13T10:58:18;4.22;;;2.47;;
74291;SDS011;62687;55.738;37.516;2023-07-13T11:03:55;9.63;;;2.78;;
74291;SDS011;62687;55.738;37.516;2023-07-13T11:06:43;5.32;;;2.40;;
74291;SDS011;62687;55.738;37.516;2023-07-13T11:15:06;10.57;;;3.60;;
74291;SDS011;62687;55.738;37.516;2023-07-13T11:17:54;4.30;;;2.22;;
74291;SDS011;62687;55.738;37.516;2023-07-13T11:20:44;4.72;;;2.30;;
74291;SDS011;62687;55.738;37.516;2023-07-13T11:23:29;9.05;;;2.97;;
74291;SDS011;62687;55.738;37.516;2023-07-13T11:32:10;7.70;;;2.72;;
74291;SDS011;62687;55.738;37.516;2023-07-13T11:35:05;7.47;;;3.00;;
74291;SDS011;62687;55.738;37.516;2023-07-13T11:37:53;4.97;;;2.50;;
74291;SDS011;62687;55.738;37.516;2023-07-13T11:40:37;7.78;;;2.78;;
74291;SDS011;62687;55.738;37.516;2023-07-13T11:43:21;8.43;;;3.03;;
74291;SDS011;62687;55.738;37.516;2023-07-13T11:46:14;6.72;;;3.25;;
74291;SDS011;62687;55.738;37.516;2023-07-13T11:48:58;7.13;;;3.38;;
74291;SDS011;62687;55.738;37.516;2023-07-13T11:51:42;6.60;;;2.33;;
74291;SDS011;62687;55.738;37.516;2023-07-13T11:54:41;6.50;;;3.05;;
74291;SDS011;62687;55.738;37.516;2023-07-13T11:57:33;7.97;;;2.67;;
74291;SDS011;62687;55.738;37.516;2023-07-13T12:00:23;9.43;;;2.70;;
74291;SDS011;62687;55.738;37.516;2023-07-13T12:03:10;5.90;;;2.85;;
74291;SDS011;62687;55.738;37.516;2023-07-13T12:06:38;7.22;;;2.60;;
74291;SDS011;62687;55.738;37.516;2023-07-13T12:09:03;4.22;;;1.88;;
74291;SDS011;62687;55.738;37.516;2023-07-13T12:11:47;5.28;;;1.85;;
74291;SDS011;62687;55.738;37.516;2023-07-13T12:14:33;5.55;;;2.47;;
74291;SDS011;62687;55.738;37.516;2023-07-13T12:17:21;3.40;;;1.98;;
74291;SDS011;62687;55.738;37.516;2023-07-13T12:23:04;7.47;;;2.95;;
74291;SDS011;62687;55.738;37.516;2023-07-13T12:25:48;5.82;;;2.50;;
74291;SDS011;62687;55.738;37.516;2023-07-13T12:28:34;12.80;;;3.53;;
74291;SDS011;62687;55.738;37.516;2023-07-13T12:34:18;6.80;;;2.25;;
74291;SDS011;62687;55.738;37.516;2023-07-13T12:37:02;7.35;;;2.78;;
74291;SDS011;62687;55.738;37.516;2023-07-13T12:39:47;11.95;;;3.03;;
74291;SDS011;62687;55.738;37.516;2023-07-13T12:45:20;11.93;;;3.45;;
74291;SDS011;62687;55.738;37.516;2023-07-13T12:48:06;8.80;;;2.92;;
74291;SDS011;62687;55.738;37.516;2023-07-13T12:50:56;6.22;;;2.60;;
74291;SDS011;62687;55.738;37.516;2023-07-13T12:53:48;12.88;;;3.10;;
74291;SDS011;62687;55.738;37.516;2023-07-13T12:56:32;6.75;;;2.33;;
74291;SDS011;62687;55.738;37.516;2023-07-13T12:59:18;11.02;;;3.47;;
74291;SDS011;62687;55.738;37.516;2023-07-13T13:02:02;5.90;;;2.42;;
74291;SDS011;62687;55.738;37.516;2023-07-13T13:04:47;10.57;;;3.45;;
74291;SDS011;62687;55.738;37.516;2023-07-13T13:10:16;10.10;;;3.30;;
74291;SDS011;62687;55.738;37.516;2023-07-13T13:13:00;10.73;;;3.58;;
74291;SDS011;62687;55.738;37.516;2023-07-13T13:15:44;6.10;;;2.80;;
74291;SDS011;62687;55.738;37.516;2023-07-13T13:18:28;6.15;;;2.90;;
74291;SDS011;62687;55.738;37.516;2023-07-13T13:23:57;9.38;;;3.60;;
74291;SDS011;62687;55.738;37.516;2023-07-13T13:26:41;13.20;;;4.70;;
74291;SDS011;62687;55.738;37.516;2023-07-13T13:29:25;14.73;;;3.67;;
74291;SDS011;62687;55.738;37.516;2023-07-13T13:32:10;10.40;;;4.45;;
74291;SDS011;62687;55.738;37.516;2023-07-13T13:34:55;18.08;;;4.70;;
74291;SDS011;62687;55.738;37.516;2023-07-13T13:37:39;7.60;;;2.80;;
74291;SDS011;62687;55.738;37.516;2023-07-13T13:40:23;17.75;;;4.57;;
74291;SDS011;62687;55.738;37.516;2023-07-13T13:43:13;7.80;;;2.80;;
74291;SDS011;62687;55.738;37.516;2023-07-13T13:45:58;9.50;;;3.10;;
74291;SDS011;62687;55.738;37.516;2023-07-13T13:48:44;9.07;;;3.13;;
74291;SDS011;62687;55.738;37.516;2023-07-13T13:51:28;10.85;;;3.30;;
74291;SDS011;62687;55.738;37.516;2023-07-13T13:56:57;8.68;;;3.40;;
74291;SDS011;62687;55.738;37.516;2023-07-13T14:02:27;11.15;;;3.65;;
74291;SDS011;62687;55.738;37.516;2023-07-13T14:05:12;7.95;;;3.90;;
74291;SDS011;62687;55.738;37.516;2023-07-13T14:07:57;11.15;;;4.47;;
74291;SDS011;62687;55.738;37.516;2023-07-13T14:10:41;12.27;;;4.40;;
74291;SDS011;62687;55.738;37.516;2023-07-13T14:13:28;14.85;;;4.45;;
74291;SDS011;62687;55.738;37.516;2023-07-13T14:16:15;10.80;;;4.50;;
74291;SDS011;62687;55.738;37.516;2023-07-13T14:19:03;7.85;;;3.47;;
74291;SDS011;62687;55.738;37.516;2023-07-13T14:21:47;8.55;;;4.00;;
74291;SDS011;62687;55.738;37.516;2023-07-13T14:24:33;8.75;;;4.00;;
74291;SDS011;62687;55.738;37.516;2023-07-13T14:27:17;9.68;;;3.90;;
74291;SDS011;62687;55.738;37.516;2023-07-13T14:30:01;9.50;;;3.85;;
74291;SDS011;62687;55.738;37.516;2023-07-13T14:32:45;9.05;;;3.67;;
74291;SDS011;62687;55.738;37.516;2023-07-13T14:35:29;9.55;;;3.20;;
74291;SDS011;62687;55.738;37.516;2023-07-13T14:38:16;10.10;;;3.55;;
74291;SDS011;62687;55.738;37.516;2023-07-13T14:41:00;13.75;;;3.72;;
74291;SDS011;62687;55.738;37.516;2023-07-13T14:43:45;8.85;;;3.35;;
74291;SDS011;62687;55.738;37.516;2023-07-13T14:46:30;9.23;;;3.47;;
74291;SDS011;62687;55.738;37.516;2023-07-13T14:54:55;12.95;;;6.28;;
74291;SDS011;62687;55.738;37.516;2023-07-13T14:57:39;11.85;;;4.80;;
74291;SDS011;62687;55.738;37.516;2023-07-13T15:00:23;10.27;;;2.88;;
74291;SDS011;62687;55.738;37.516;2023-07-13T15:05:52;7.55;;;2.60;;
74291;SDS011;62687;55.738;37.516;2023-07-13T15:08:36;5.75;;;2.20;;
74291;SDS011;62687;55.738;37.516;2023-07-13T15:11:21;8.90;;;2.75;;
74291;SDS011;62687;55.738;37.516;2023-07-13T15:14:05;7.22;;;3.33;;
74291;SDS011;62687;55.738;37.516;2023-07-13T15:16:49;6.40;;;3.58;;
74291;SDS011;62687;55.738;37.516;2023-07-13T15:19:34;7.20;;;2.80;;
74291;SDS011;62687;55.738;37.516;2023-07-13T15:22:19;7.65;;;2.72;;
74291;SDS011;62687;55.738;37.516;2023-07-13T15:25:07;10.52;;;3.42;;
74291;SDS011;62687;55.738;37.516;2023-07-13T15:27:56;6.68;;;2.85;;
74291;SDS011;62687;55.738;37.516;2023-07-13T15:30:41;9.05;;;3.10;;
74291;SDS011;62687;55.738;37.516;2023-07-13T15:33:29;6.68;;;2.50;;
74291;SDS011;62687;55.738;37.516;2023-07-13T15:36:13;5.60;;;2.70;;
74291;SDS011;62687;55.738;37.516;2023-07-13T15:38:57;8.55;;;2.42;;
74291;SDS011;62687;55.738;37.516;2023-07-13T15:41:41;9.40;;;2.83;;
74291;SDS011;62687;55.738;37.516;2023-07-13T15:44:28;7.90;;;2.60;;
74291;SDS011;62687;55.738;37.516;2023-07-13T15:47:13;7.63;;;3.22;;
74291;SDS011;62687;55.738;37.516;2023-07-13T15:49:57;8.65;;;3.42;;
74291;SDS011;62687;55.738;37.516;2023-07-13T15:52:43;6.38;;;3.10;;
74291;SDS011;62687;55.738;37.516;2023-07-13T15:55:28;9.07;;;3.38;;
74291;SDS011;62687;55.738;37.516;2023-07-13T15:58:13;8.52;;;3.63;;
74291;SDS011;62687;55.738;37.516;2023-07-13T16:00:58;7.18;;;2.95;;
74291;SDS011;62687;55.738;37.516;2023-07-13T16:03:42;8.55;;;3.10;;
74291;SDS011;62687;55.738;37.516;2023-07-13T16:06:31;11.32;;;4.72;;
74291;SDS011;62687;55.738;37.516;2023-07-13T16:09:17;13.00;;;5.72;;
74291;SDS011;62687;55.738;37.516;2023-07-13T16:12:03;10.25;;;4.50;;
74291;SDS011;62687;55.738;37.516;2023-07-13T16:14:48;8.38;;;3.47;;
74291;SDS011;62687;55.738;37.516;2023-07-13T16:17:33;8.07;;;4.35;;
74291;SDS011;62687;55.738;37.516;2023-07-13T16:20:17;7.63;;;3.92;;
74291;SDS011;62687;55.738;37.516;2023-07-13T16:23:01;9.77;;;4.65;;
74291;SDS011;62687;55.738;37.516;2023-07-13T16:25:46;10.18;;;3.85;;
74291;SDS011;62687;55.738;37.516;2023-07-13T16:31:15;10.93;;;5.55;;
74291;SDS011;62687;55.738;37.516;2023-07-13T16:33:59;15.13;;;7.47;;
74291;SDS011;62687;55.738;37.516;2023-07-13T16:36:44;6.18;;;2.70;;
74291;SDS011;62687;55.738;37.516;2023-07-13T16:39:28;8.18;;;3.97;;
74291;SDS011;62687;55.738;37.516;2023-07-13T16:42:13;9.50;;;4.50;;
74291;SDS011;62687;55.738;37.516;2023-07-13T16:44:57;16.30;;;8.20;;
74291;SDS011;62687;55.738;37.516;2023-07-13T16:47:41;8.25;;;4.43;;
74291;SDS011;62687;55.738;37.516;2023-07-13T16:50:29;8.88;;;3.78;;
74291;SDS011;62687;55.738;37.516;2023-07-13T16:53:21;7.47;;;3.10;;
74291;SDS011;62687;55.738;37.516;2023-07-13T16:56:08;6.15;;;2.40;;
74291;SDS011;62687;55.738;37.516;2023-07-13T16:58:56;9.75;;;3.50;;
74291;SDS011;62687;55.738;37.516;2023-07-13T17:01:40;6.50;;;3.08;;
74291;SDS011;62687;55.738;37.516;2023-07-13T17:04:24;6.65;;;2.88;;
74291;SDS011;62687;55.738;37.516;2023-07-13T17:07:08;4.60;;;2.58;;
74291;SDS011;62687;55.738;37.516;2023-07-13T17:09:52;5.45;;;2.80;;
74291;SDS011;62687;55.738;37.516;2023-07-13T17:12:37;8.27;;;3.15;;
74291;SDS011;62687;55.738;37.516;2023-07-13T17:15:21;6.55;;;2.85;;
74291;SDS011;62687;55.738;37.516;2023-07-13T17:18:09;6.35;;;3.15;;
74291;SDS011;62687;55.738;37.516;2023-07-13T17:20:54;6.85;;;3.10;;
74291;SDS011;62687;55.738;37.516;2023-07-13T17:23:38;11.48;;;3.28;;
74291;SDS011;62687;55.738;37.516;2023-07-13T17:26:23;8.90;;;3.03;;
74291;SDS011;62687;55.738;37.516;2023-07-13T17:29:07;10.02;;;3.72;;
74291;SDS011;62687;55.738;37.516;2023-07-13T17:31:52;11.23;;;2.85;;
74291;SDS011;62687;55.738;37.516;2023-07-13T17:34:36;8.90;;;3.70;;
74291;SDS011;62687;55.738;37.516;2023-07-13T17:37:29;6.90;;;3.50;;
74291;SDS011;62687;55.738;37.516;2023-07-13T17:40:13;8.80;;;4.03;;
74291;SDS011;62687;55.738;37.516;2023-07-13T17:43:01;5.45;;;2.42;;
74291;SDS011;62687;55.738;37.516;2023-07-13T17:45:45;7.47;;;3.22;;
74291;SDS011;62687;55.738;37.516;2023-07-13T17:48:29;4.68;;;2.83;;
74291;SDS011;62687;55.738;37.516;2023-07-13T17:51:14;9.63;;;3.13;;